Portada
METAR-TAF:

METAR-TAF

Aeropuertos :

Nuevo Aeropuerto de Chitose

Chitose, Japón

latitud: 42-48N, longitud: 141-40E, altitud: 27 m

Observación

El informe se hizo hace 22 minutos, a las 15:30 UTC
Viento 1 kt con dirección variable
Temperatura 2°C
Humedad 100%
Presión 1023 hPa
Visibilidad 10 km o más
Escasas nubes a una altura de 3000 ft

METAR: RJCC 241530Z VRB01KT 9999 FEW030 02/02 Q1023

Hora: 00:52 (15:52 UTC)

Pronóstico

El informe se hizo hace 4 horas y 47 minutos, a las 11:05 UTC
Pronóstico válido del 24 a las 12 UTC al 25 a las 18 UTC
Viento 5 kt del sureste
Visibilidad 10 km o más
Escasas nubes a una altura de 3000 ft
Evolucionando progresivamente
del 25 a las 15 UTC al 25 a las 18 UTC
Viento 3 kt del norte-noroeste

TAF: RJCC 241105Z 2412/2518 14005KT 9999 FEW030 BECMG 2515/2518 33003KT

Observaciones y pronósticos meteorológicos de más de 4000 aeropuertos (mensajes METAR y TAF).

Los puntos amarillos y rojos representan las estaciones disponibles.

Ponga el ratón en el punto deseado para ver el nombre de la estación.

Haga clic para ver las observaciones y los pronósticos meteorológicos.

Para cambiar el mapa : haga clic en los botones verdes con una cruz de color negro para hacer un zoom, en el botón verde con un guión para alejar o en las flechas verdes para mapas adyacentes.


METAR-TAF: